createdAt,value
2018-08-03T00:01:33.737Z,24.10
2018-08-03T00:04:01.892Z,24.10
2018-08-03T00:06:30.020Z,24.00
2018-08-03T00:08:58.101Z,24.00
2018-08-03T00:11:26.239Z,24.00
2018-08-03T00:13:54.381Z,23.90
2018-08-03T00:18:50.488Z,23.90
2018-08-03T00:21:18.588Z,23.90
2018-08-03T00:23:46.691Z,23.80
2018-08-03T00:26:14.838Z,23.80
2018-08-03T00:28:42.927Z,23.80
2018-08-03T00:31:11.051Z,23.70
2018-08-03T00:33:39.231Z,23.70
2018-08-03T00:36:07.311Z,23.70
2018-08-03T00:38:36.406Z,23.70
2018-08-03T00:41:04.536Z,23.60
2018-08-03T00:43:32.685Z,23.60
2018-08-03T00:46:00.816Z,23.60
2018-08-03T00:48:28.960Z,23.50
2018-08-03T00:50:57.076Z,23.50
2018-08-03T00:53:25.167Z,23.50
2018-08-03T00:55:53.293Z,23.50
2018-08-03T00:58:21.395Z,23.40
2018-08-03T01:00:49.556Z,23.40
2018-08-03T01:03:17.711Z,23.40
2018-08-03T01:05:45.849Z,23.40
2018-08-03T01:08:13.972Z,23.30
2018-08-03T01:10:42.231Z,23.30
2018-08-03T01:13:10.363Z,23.30
2018-08-03T01:15:38.499Z,23.30
2018-08-03T01:18:06.648Z,23.20
2018-08-03T01:20:34.763Z,23.20
2018-08-03T01:23:02.867Z,23.30
2018-08-03T01:25:31.031Z,23.20
2018-08-03T01:27:59.143Z,23.20
2018-08-03T01:30:27.252Z,23.20
2018-08-03T01:32:55.397Z,23.20
2018-08-03T01:35:23.520Z,23.20
2018-08-03T01:37:51.796Z,23.20
2018-08-03T01:40:19.936Z,23.10
2018-08-03T01:42:48.099Z,23.10
2018-08-03T01:47:44.217Z,23.10
2018-08-03T01:50:12.344Z,23.10
2018-08-03T01:52:40.476Z,23.10
2018-08-03T01:55:08.606Z,23.10
2018-08-03T01:57:36.732Z,23.00
2018-08-03T02:00:05.214Z,23.00
2018-08-03T02:02:33.350Z,23.00
2018-08-03T02:05:02.025Z,23.00
2018-08-03T02:07:30.124Z,22.90
2018-08-03T02:09:58.263Z,22.90
2018-08-03T02:12:26.367Z,22.90
2018-08-03T02:14:54.495Z,22.90
2018-08-03T02:17:22.617Z,22.90
2018-08-03T02:19:50.823Z,22.90
2018-08-03T02:22:18.940Z,22.90
2018-08-03T02:24:47.060Z,22.90
2018-08-03T02:27:15.200Z,22.90
2018-08-03T02:29:43.379Z,22.80
2018-08-03T02:32:11.519Z,22.80
2018-08-03T02:34:39.636Z,22.80
2018-08-03T02:37:07.820Z,22.80
2018-08-03T02:39:35.935Z,22.80
2018-08-03T02:42:04.113Z,22.80
2018-08-03T02:44:32.257Z,22.70
2018-08-03T02:47:00.338Z,22.70
2018-08-03T02:49:28.469Z,22.70
2018-08-03T02:51:56.610Z,22.60
2018-08-03T02:54:24.681Z,22.60
2018-08-03T02:56:52.771Z,22.60
2018-08-03T02:59:20.892Z,22.60
2018-08-03T03:01:49.016Z,22.50
2018-08-03T03:04:17.134Z,22.50
2018-08-03T03:06:45.270Z,22.60
2018-08-03T03:09:13.397Z,22.50
2018-08-03T03:11:41.552Z,22.50
2018-08-03T03:14:09.695Z,22.50
2018-08-03T03:16:37.836Z,22.50
2018-08-03T03:19:05.939Z,22.50
2018-08-03T03:21:34.085Z,22.50
2018-08-03T03:24:02.232Z,22.50
2018-08-03T03:26:30.381Z,22.40
2018-08-03T03:28:58.632Z,22.30
2018-08-03T03:31:26.736Z,22.20
2018-08-03T03:33:54.909Z,22.20
2018-08-03T03:36:23.001Z,22.20
2018-08-03T03:38:51.135Z,22.20
2018-08-03T03:41:19.276Z,22.10
2018-08-03T03:43:47.467Z,22.00
2018-08-03T03:46:15.593Z,22.00
2018-08-03T03:51:11.695Z,21.90
2018-08-03T03:53:39.828Z,21.90
2018-08-03T03:56:07.940Z,21.80
2018-08-03T03:58:36.088Z,21.80
2018-08-03T04:01:04.214Z,21.80
2018-08-03T04:03:32.360Z,21.80
2018-08-03T04:06:00.564Z,21.90
2018-08-03T04:08:28.670Z,21.90
2018-08-03T04:10:56.872Z,21.80
2018-08-03T04:13:24.985Z,21.80
2018-08-03T04:15:53.184Z,21.80
2018-08-03T04:18:22.003Z,21.80
2018-08-03T04:20:51.244Z,21.80
2018-08-03T04:23:19.604Z,21.80
2018-08-03T04:25:47.716Z,21.80
2018-08-03T04:28:15.850Z,21.80
2018-08-03T04:30:43.979Z,21.80
2018-08-03T04:33:12.727Z,21.80
2018-08-03T04:35:41.014Z,21.80
2018-08-03T04:38:09.447Z,21.80
2018-08-03T04:40:37.595Z,21.80
2018-08-03T04:43:05.733Z,21.80
2018-08-03T04:45:33.844Z,21.80
2018-08-03T04:48:02.000Z,21.80
2018-08-03T04:50:30.117Z,21.80
2018-08-03T04:52:58.256Z,21.80
2018-08-03T04:55:26.360Z,21.80
2018-08-03T04:57:54.551Z,21.80
2018-08-03T05:00:22.680Z,21.80
2018-08-03T05:02:50.800Z,21.90
2018-08-03T05:05:18.893Z,21.90
2018-08-03T05:07:47.000Z,21.90
2018-08-03T05:10:15.143Z,22.00
2018-08-03T05:12:43.257Z,21.90
2018-08-03T05:15:11.347Z,22.00
2018-08-03T05:17:39.476Z,22.00
2018-08-03T05:20:08.100Z,22.00
2018-08-03T05:22:36.212Z,22.00
2018-08-03T05:25:04.627Z,22.10
2018-08-03T05:27:32.938Z,22.20
2018-08-03T05:30:01.151Z,22.20
2018-08-03T05:32:29.368Z,22.30
2018-08-03T05:34:57.505Z,22.40
2018-08-03T05:37:25.595Z,22.50
2018-08-03T05:39:53.731Z,22.50
2018-08-03T05:42:21.939Z,22.70
2018-08-03T05:44:50.072Z,22.70
2018-08-03T05:47:18.241Z,22.80
2018-08-03T05:49:46.463Z,22.90
2018-08-03T05:52:15.939Z,23.00
2018-08-03T05:54:44.109Z,23.10
2018-08-03T05:57:12.208Z,23.10
2018-08-03T05:59:40.369Z,23.20
2018-08-03T06:02:08.532Z,23.30
2018-08-03T06:04:36.731Z,23.40
2018-08-03T06:07:04.824Z,23.50
2018-08-03T06:09:33.191Z,23.50
2018-08-03T06:12:01.363Z,23.60
2018-08-03T06:14:29.479Z,23.70
2018-08-03T06:16:57.603Z,23.70
2018-08-03T06:19:25.777Z,23.80
2018-08-03T06:21:53.896Z,23.80
2018-08-03T06:24:22.055Z,24.00
2018-08-03T06:26:50.144Z,24.10
2018-08-03T06:29:18.274Z,24.10
2018-08-03T06:31:46.486Z,24.20
2018-08-03T06:34:14.704Z,24.30
2018-08-03T06:36:42.881Z,24.40
2018-08-03T06:39:11.587Z,24.50
2018-08-03T06:41:39.741Z,24.50
2018-08-03T06:44:07.932Z,24.50
2018-08-03T06:46:36.076Z,24.60
2018-08-03T06:49:04.249Z,24.60
2018-08-03T06:51:32.425Z,24.80
2018-08-03T06:54:00.549Z,24.80
2018-08-03T06:56:28.921Z,24.90
2018-08-03T06:58:57.105Z,25.00
2018-08-03T07:03:53.334Z,25.20
2018-08-03T07:06:21.512Z,25.30
2018-08-03T07:08:49.610Z,25.40
2018-08-03T07:11:17.736Z,25.50
2018-08-03T07:13:45.867Z,25.70
2018-08-03T07:16:14.073Z,25.80
2018-08-03T07:18:42.184Z,26.00
2018-08-03T07:21:10.484Z,26.20
2018-08-03T07:23:38.588Z,26.30
2018-08-03T07:26:06.713Z,26.50
2018-08-03T07:28:34.795Z,26.70
2018-08-03T07:31:02.937Z,26.90
2018-08-03T07:33:31.088Z,27.20
2018-08-03T07:38:27.582Z,28.00
2018-08-03T07:40:55.905Z,28.50
2018-08-03T07:43:24.110Z,28.90
2018-08-03T07:45:52.134Z,29.30
2018-08-03T07:48:20.283Z,29.70
2018-08-03T07:50:48.391Z,30.20
2018-08-03T07:53:16.495Z,30.50
2018-08-03T07:55:44.618Z,30.80
2018-08-03T07:58:12.752Z,31.10
2018-08-03T08:00:40.864Z,31.60
2018-08-03T08:03:09.109Z,32.20
2018-08-03T08:05:37.280Z,32.70
2018-08-03T08:08:05.383Z,33.20
2018-08-03T08:10:33.512Z,33.20
2018-08-03T08:13:01.612Z,33.20
2018-08-03T08:15:29.788Z,33.00
2018-08-03T08:17:57.968Z,33.10
2018-08-03T08:20:26.076Z,33.40
2018-08-03T08:22:54.224Z,33.40
2018-08-03T08:25:22.376Z,33.10
2018-08-03T08:27:50.529Z,33.10
2018-08-03T08:30:18.849Z,33.20
2018-08-03T08:32:47.016Z,33.20
2018-08-03T08:35:15.175Z,33.20
2018-08-03T08:37:43.300Z,33.20
2018-08-03T08:40:11.476Z,33.30
2018-08-03T08:42:39.666Z,33.30
2018-08-03T08:45:07.784Z,33.50
2018-08-03T08:47:35.960Z,33.70
2018-08-03T08:50:05.376Z,34.00
2018-08-03T08:52:33.624Z,34.00
2018-08-03T08:55:01.784Z,33.90
2018-08-03T08:57:29.933Z,34.00
2018-08-03T08:59:58.130Z,33.90
2018-08-03T09:02:26.356Z,34.00
2018-08-03T09:04:54.505Z,33.90
2018-08-03T09:09:50.802Z,34.40
2018-08-03T09:12:18.998Z,34.70
2018-08-03T09:14:47.133Z,35.10
2018-08-03T09:19:43.198Z,35.00
2018-08-03T09:22:11.420Z,35.00
2018-08-03T09:24:39.569Z,35.00
2018-08-03T09:27:07.673Z,35.10
2018-08-03T09:29:35.842Z,35.20
2018-08-03T09:32:04.071Z,35.30
2018-08-03T09:34:32.252Z,35.40
2018-08-03T09:37:00.522Z,35.20
2018-08-03T09:39:28.696Z,35.20
2018-08-03T09:41:56.837Z,35.30
2018-08-03T09:44:24.955Z,35.50
2018-08-03T09:46:53.111Z,35.80
2018-08-03T09:49:21.230Z,35.90
2018-08-03T09:51:49.393Z,35.90
2018-08-03T09:56:45.547Z,35.80
2018-08-03T09:59:13.689Z,35.70
2018-08-03T10:01:41.784Z,35.80
2018-08-03T10:04:09.921Z,35.80
2018-08-03T10:06:38.073Z,35.50
2018-08-03T10:09:07.059Z,35.50
2018-08-03T10:11:35.196Z,35.80
2018-08-03T10:14:03.336Z,35.60
2018-08-03T10:16:31.500Z,35.80
2018-08-03T10:18:59.647Z,35.70
2018-08-03T10:21:27.816Z,35.60
2018-08-03T10:23:55.987Z,35.70
2018-08-03T10:26:24.097Z,35.70
2018-08-03T10:28:52.388Z,35.60
2018-08-03T10:31:20.500Z,35.70
2018-08-03T10:33:48.661Z,35.80
2018-08-03T10:36:16.821Z,35.90
2018-08-03T10:38:44.935Z,36.00
2018-08-03T10:41:13.117Z,36.40
2018-08-03T10:43:41.186Z,36.60
2018-08-03T10:46:09.324Z,36.70
2018-08-03T10:48:37.447Z,36.80
2018-08-03T10:53:33.488Z,36.20
2018-08-03T10:56:01.621Z,36.00
2018-08-03T10:58:29.700Z,36.00
2018-08-03T11:00:57.819Z,36.10
2018-08-03T11:03:25.965Z,36.10
2018-08-03T11:05:54.057Z,36.10
2018-08-03T11:08:22.172Z,36.20
2018-08-03T11:10:50.312Z,36.20
2018-08-03T11:13:18.403Z,36.30
2018-08-03T11:15:46.544Z,36.30
2018-08-03T11:18:14.655Z,36.20
2018-08-03T11:20:42.801Z,36.10
2018-08-03T11:23:10.920Z,36.00
2018-08-03T11:25:39.080Z,36.00
2018-08-03T11:28:07.189Z,36.00
2018-08-03T11:30:35.283Z,36.00
2018-08-03T11:33:03.407Z,35.80
2018-08-03T11:35:31.541Z,35.70
2018-08-03T11:37:59.695Z,35.60
2018-08-03T11:40:27.809Z,35.50
2018-08-03T11:42:55.939Z,35.40
2018-08-03T11:56:44.432Z,34.80
2018-08-03T11:59:12.535Z,34.40
2018-08-03T12:01:40.670Z,34.10
2018-08-03T12:04:08.771Z,33.90
2018-08-03T12:06:37.522Z,33.60
2018-08-03T12:09:06.220Z,33.50
2018-08-03T12:11:34.314Z,33.50
2018-08-03T12:14:02.446Z,33.70
2018-08-03T12:16:30.531Z,33.90
2018-08-03T12:18:58.659Z,34.10
2018-08-03T12:21:26.763Z,34.40
2018-08-03T12:23:54.916Z,34.50
2018-08-03T12:26:22.957Z,34.70
2018-08-03T12:28:51.042Z,34.80
2018-08-03T12:31:19.197Z,35.00
2018-08-03T12:33:47.267Z,35.00
2018-08-03T12:36:15.387Z,35.10
2018-08-03T12:38:43.505Z,35.20
2018-08-03T12:41:11.599Z,35.20
2018-08-03T12:43:39.715Z,35.20
2018-08-03T12:46:07.815Z,35.30
2018-08-03T12:48:36.923Z,35.30
2018-08-03T12:51:05.072Z,35.30
2018-08-03T12:53:33.224Z,35.30
2018-08-03T12:56:01.319Z,35.30
2018-08-03T12:58:29.532Z,35.30
2018-08-03T13:00:57.645Z,35.30
2018-08-03T13:03:25.740Z,35.30
2018-08-03T13:05:53.851Z,35.30
2018-08-03T13:08:22.108Z,35.20
2018-08-03T13:10:50.044Z,35.20
2018-08-03T13:13:19.258Z,35.10
2018-08-03T13:15:47.347Z,35.00
2018-08-03T13:18:15.476Z,34.90
2018-08-03T13:20:43.604Z,34.90
2018-08-03T13:23:11.702Z,34.80
2018-08-03T13:25:39.823Z,34.70
2018-08-03T13:28:07.997Z,34.70
2018-08-03T13:30:36.108Z,34.60
2018-08-03T13:33:04.283Z,34.50
2018-08-03T13:40:28.131Z,34.30
2018-08-03T13:42:56.266Z,34.30
2018-08-03T13:45:24.367Z,34.30
2018-08-03T13:47:52.506Z,34.20
2018-08-03T13:50:20.668Z,34.10
2018-08-03T13:52:48.739Z,34.00
2018-08-03T13:55:16.870Z,34.00
2018-08-03T13:57:45.095Z,33.90
2018-08-03T14:00:13.806Z,33.80
2018-08-03T14:02:42.180Z,33.80
2018-08-03T14:05:10.518Z,33.70
2018-08-03T14:07:38.687Z,33.60
2018-08-03T14:10:07.480Z,33.60
2018-08-03T14:12:35.614Z,33.60
2018-08-03T14:15:03.744Z,33.60
2018-08-03T14:17:31.847Z,33.50
2018-08-03T14:19:59.941Z,33.00
2018-08-03T14:22:28.091Z,32.40
2018-08-03T14:24:56.253Z,32.20
2018-08-03T14:27:24.382Z,32.10
2018-08-03T14:29:52.562Z,32.20
2018-08-03T14:32:20.712Z,32.30
2018-08-03T14:34:48.842Z,32.40
2018-08-03T14:37:16.999Z,32.50
2018-08-03T14:39:45.107Z,32.50
2018-08-03T14:42:13.227Z,32.60
2018-08-03T14:44:41.328Z,32.60
2018-08-03T14:47:09.471Z,32.70
2018-08-03T14:49:37.572Z,32.70
2018-08-03T14:52:06.104Z,32.70
2018-08-03T14:54:34.259Z,32.70
2018-08-03T14:57:02.383Z,32.70
2018-08-03T14:59:30.479Z,32.70
2018-08-03T15:01:58.620Z,32.70
2018-08-03T15:04:26.731Z,32.70
2018-08-03T15:06:54.896Z,32.60
2018-08-03T15:09:23.039Z,32.60
2018-08-03T15:11:51.148Z,32.60
2018-08-03T15:14:19.324Z,32.60
2018-08-03T15:16:47.454Z,32.50
2018-08-03T15:19:15.588Z,32.50
2018-08-03T15:21:43.714Z,32.40
2018-08-03T15:24:11.844Z,32.40
2018-08-03T15:26:40.004Z,32.40
2018-08-03T15:29:08.211Z,32.30
2018-08-03T15:31:36.320Z,32.30
2018-08-03T15:34:04.443Z,32.30
2018-08-03T15:36:32.570Z,32.10
2018-08-03T15:39:00.699Z,31.70
2018-08-03T15:41:28.816Z,31.50
2018-08-03T15:43:56.920Z,31.20
2018-08-03T15:46:25.053Z,31.10
2018-08-03T15:48:53.311Z,30.90
2018-08-03T15:51:21.432Z,30.70
2018-08-03T15:53:49.570Z,30.70
2018-08-03T15:56:17.732Z,30.50
2018-08-03T15:58:45.921Z,30.40
2018-08-03T16:01:13.966Z,30.30
2018-08-03T16:03:42.107Z,30.30
2018-08-03T16:06:10.251Z,30.30
2018-08-03T16:08:38.388Z,30.20
2018-08-03T16:11:13.434Z,30.20
2018-08-03T16:13:41.702Z,30.20
2018-08-03T16:16:09.847Z,30.10
2018-08-03T16:18:37.987Z,30.10
2018-08-03T16:21:06.098Z,30.10
2018-08-03T16:23:34.215Z,30.10
2018-08-03T16:26:02.354Z,30.10
2018-08-03T16:28:30.500Z,30.10
2018-08-03T16:30:58.715Z,30.10
2018-08-03T16:33:26.825Z,30.10
2018-08-03T16:35:55.184Z,30.10
2018-08-03T16:38:23.323Z,30.00
2018-08-03T16:40:51.416Z,30.00
2018-08-03T16:43:19.559Z,29.90
2018-08-03T16:45:47.678Z,29.90
2018-08-03T16:48:15.824Z,29.90
2018-08-03T16:50:43.944Z,29.90
2018-08-03T16:53:12.073Z,29.90
2018-08-03T16:55:40.195Z,29.90
2018-08-03T16:58:08.343Z,29.80
2018-08-03T17:00:36.440Z,29.80
2018-08-03T17:03:04.554Z,29.80
2018-08-03T17:05:32.672Z,29.80
2018-08-03T17:08:00.821Z,29.80
2018-08-03T17:10:28.967Z,29.70
2018-08-03T17:12:57.019Z,29.70
2018-08-03T17:15:25.162Z,29.70
2018-08-03T17:17:53.275Z,29.70
2018-08-03T17:20:21.486Z,29.60
2018-08-03T17:22:49.519Z,29.60
2018-08-03T17:25:17.627Z,29.60
2018-08-03T17:27:45.743Z,29.60
2018-08-03T17:30:13.971Z,29.50
2018-08-03T17:32:42.091Z,29.60
2018-08-03T17:35:10.178Z,29.60
2018-08-03T17:37:38.532Z,29.60
2018-08-03T17:40:06.642Z,29.60
2018-08-03T17:42:34.815Z,29.60
2018-08-03T17:45:02.849Z,29.60
2018-08-03T17:47:30.957Z,29.50
2018-08-03T17:49:59.041Z,29.50
2018-08-03T17:52:27.155Z,29.50
2018-08-03T17:54:55.300Z,29.40
2018-08-03T17:57:23.543Z,29.40
2018-08-03T17:59:51.846Z,29.30
2018-08-03T18:02:19.971Z,29.20
2018-08-03T18:04:48.146Z,29.20
2018-08-03T18:07:16.235Z,29.20
2018-08-03T18:09:44.352Z,29.20
2018-08-03T18:12:12.436Z,29.20
2018-08-03T18:14:40.631Z,29.10
2018-08-03T18:17:08.803Z,29.10
2018-08-03T18:19:36.927Z,29.00
2018-08-03T18:22:05.060Z,29.00
2018-08-03T18:24:33.225Z,29.00
2018-08-03T18:27:01.363Z,28.90
2018-08-03T18:29:29.474Z,28.90
2018-08-03T18:31:57.598Z,28.90
2018-08-03T18:34:25.805Z,28.90
2018-08-03T18:36:54.000Z,28.90
2018-08-03T18:39:22.023Z,28.90
2018-08-03T18:41:50.130Z,28.80
2018-08-03T18:44:18.215Z,28.80
2018-08-03T18:46:46.350Z,28.80
2018-08-03T18:49:14.479Z,28.80
2018-08-03T18:51:42.607Z,28.80
2018-08-03T18:54:10.700Z,28.70
2018-08-03T18:56:38.919Z,28.70
2018-08-03T18:59:07.414Z,28.70
2018-08-03T19:01:35.574Z,28.70
2018-08-03T19:06:31.611Z,28.70
2018-08-03T19:08:59.751Z,28.60
2018-08-03T19:11:27.875Z,28.60
2018-08-03T19:13:56.031Z,28.60
2018-08-03T19:16:24.199Z,28.50
2018-08-03T19:18:52.437Z,28.50
2018-08-03T19:21:21.104Z,28.40
2018-08-03T19:23:49.216Z,28.30
2018-08-03T19:26:17.314Z,28.30
2018-08-03T19:28:45.399Z,28.20
2018-08-03T19:31:14.320Z,28.10
2018-08-03T19:33:42.432Z,28.10
2018-08-03T19:36:10.562Z,28.00
2018-08-03T19:38:38.630Z,28.00
2018-08-03T19:41:06.690Z,28.00
2018-08-03T19:43:34.796Z,28.00
2018-08-03T19:46:02.892Z,27.90
2018-08-03T19:48:31.013Z,27.90
2018-08-03T19:50:59.143Z,27.90
2018-08-03T19:53:27.311Z,27.80
2018-08-03T19:55:55.435Z,27.80
2018-08-03T19:58:23.586Z,27.70
2018-08-03T20:00:51.881Z,27.70
2018-08-03T20:03:20.004Z,27.60
2018-08-03T20:05:48.123Z,27.60
2018-08-03T20:10:44.212Z,27.50
2018-08-03T20:13:12.386Z,27.50
2018-08-03T20:15:40.483Z,27.40
2018-08-03T20:18:08.551Z,27.50
2018-08-03T20:20:36.685Z,27.40
2018-08-03T20:23:04.800Z,27.40
2018-08-03T20:25:32.918Z,27.40
2018-08-03T20:28:01.040Z,27.30
2018-08-03T20:30:29.224Z,27.30
2018-08-03T20:32:57.287Z,27.30
2018-08-03T20:35:25.388Z,27.30
2018-08-03T20:37:53.508Z,27.30
2018-08-03T20:42:49.849Z,27.10
2018-08-03T20:45:18.219Z,27.20
2018-08-03T20:47:46.316Z,27.10
2018-08-03T20:50:15.113Z,27.10
2018-08-03T20:52:43.242Z,27.10
2018-08-03T20:55:11.384Z,27.10
2018-08-03T20:57:39.520Z,27.00
2018-08-03T21:00:07.631Z,26.90
2018-08-03T21:02:36.417Z,26.90
2018-08-03T21:05:04.559Z,26.80
2018-08-03T21:07:32.660Z,26.80
2018-08-03T21:10:00.787Z,26.80
2018-08-03T21:12:29.060Z,26.80
2018-08-03T21:14:57.175Z,26.70
2018-08-03T21:17:25.297Z,26.70
2018-08-03T21:19:53.963Z,26.60
2018-08-03T21:22:22.102Z,26.50
2018-08-03T21:24:50.259Z,26.50
2018-08-03T21:27:19.219Z,26.40
2018-08-03T21:32:15.333Z,26.40
2018-08-03T21:34:43.444Z,26.40
2018-08-03T21:37:11.607Z,26.40
2018-08-03T21:39:39.699Z,26.40
2018-08-03T21:42:07.867Z,26.40
2018-08-03T21:44:36.043Z,26.30
2018-08-03T21:47:05.314Z,26.30
2018-08-03T21:49:34.506Z,26.20
2018-08-03T21:52:02.847Z,26.20
2018-08-03T21:54:30.971Z,26.10
2018-08-03T21:56:59.118Z,26.10
2018-08-03T21:59:27.877Z,26.00
2018-08-03T22:01:56.046Z,25.90
2018-08-03T22:04:24.132Z,25.90
2018-08-03T22:06:52.567Z,25.80
2018-08-03T22:09:21.235Z,25.70
2018-08-03T22:14:17.863Z,25.60
2018-08-03T22:16:46.269Z,25.50
2018-08-03T22:21:42.450Z,25.50
2018-08-03T22:24:10.580Z,25.50
2018-08-03T22:26:38.695Z,25.50
2018-08-03T22:31:34.717Z,25.50
2018-08-03T22:34:02.843Z,25.60
2018-08-03T22:36:30.935Z,25.60
2018-08-03T22:38:59.623Z,25.60
2018-08-03T22:41:27.690Z,25.60
2018-08-03T22:43:55.782Z,25.60
2018-08-03T22:46:23.902Z,25.50
2018-08-03T22:51:19.998Z,25.50
2018-08-03T22:53:48.099Z,25.50
2018-08-03T22:56:16.263Z,25.40
2018-08-03T22:58:44.482Z,25.40
2018-08-03T23:01:12.614Z,25.40
2018-08-03T23:03:40.822Z,25.30
2018-08-03T23:06:08.913Z,25.30
2018-08-03T23:08:37.009Z,25.20
2018-08-03T23:11:05.139Z,25.20
2018-08-03T23:13:33.339Z,25.20
2018-08-03T23:16:01.443Z,25.10
2018-08-03T23:18:29.656Z,25.10
2018-08-03T23:20:57.839Z,25.10
2018-08-03T23:23:26.003Z,25.10
2018-08-03T23:25:54.285Z,25.10
2018-08-03T23:28:22.467Z,25.00
2018-08-03T23:30:50.744Z,25.00
2018-08-03T23:33:18.893Z,24.80
2018-08-03T23:35:47.015Z,24.80
2018-08-03T23:38:15.165Z,24.60
2018-08-03T23:40:43.311Z,24.60
2018-08-03T23:43:11.459Z,24.60
2018-08-03T23:45:39.571Z,24.50
2018-08-03T23:48:07.740Z,24.40
2018-08-03T23:50:35.850Z,24.30
2018-08-03T23:53:04.047Z,24.30
2018-08-03T23:55:32.204Z,24.20
2018-08-03T23:58:00.323Z,24.20
